sensor_id;sensor_type;location;lat;lon;timestamp;P1;durP1;ratioP1;P2;durP2;ratioP2
51248;SDS011;39642;47.556;18.728;2023-06-10T00:01:45;8.98;;;3.25;;
51248;SDS011;39642;47.556;18.728;2023-06-10T00:04:14;9.30;;;3.45;;
51248;SDS011;39642;47.556;18.728;2023-06-10T00:06:41;9.15;;;3.35;;
51248;SDS011;39642;47.556;18.728;2023-06-10T00:09:09;9.57;;;3.70;;
51248;SDS011;39642;47.556;18.728;2023-06-10T00:11:39;10.65;;;3.62;;
51248;SDS011;39642;47.556;18.728;2023-06-10T00:14:06;9.20;;;3.33;;
51248;SDS011;39642;47.556;18.728;2023-06-10T00:16:32;9.73;;;3.20;;
51248;SDS011;39642;47.556;18.728;2023-06-10T00:18:59;11.05;;;3.47;;
51248;SDS011;39642;47.556;18.728;2023-06-10T00:21:33;9.55;;;3.55;;
51248;SDS011;39642;47.556;18.728;2023-06-10T00:24:06;10.75;;;3.50;;
51248;SDS011;39642;47.556;18.728;2023-06-10T00:26:38;9.30;;;3.20;;
51248;SDS011;39642;47.556;18.728;2023-06-10T00:29:05;9.13;;;3.25;;
51248;SDS011;39642;47.556;18.728;2023-06-10T00:31:31;9.65;;;3.50;;
51248;SDS011;39642;47.556;18.728;2023-06-10T00:33:57;10.10;;;3.35;;
51248;SDS011;39642;47.556;18.728;2023-06-10T00:36:24;10.00;;;3.70;;
51248;SDS011;39642;47.556;18.728;2023-06-10T00:38:50;9.27;;;3.62;;
51248;SDS011;39642;47.556;18.728;2023-06-10T00:41:16;10.75;;;3.87;;
51248;SDS011;39642;47.556;18.728;2023-06-10T00:43:42;9.13;;;3.53;;
51248;SDS011;39642;47.556;18.728;2023-06-10T00:46:07;10.85;;;3.72;;
51248;SDS011;39642;47.556;18.728;2023-06-10T00:48:33;9.93;;;3.42;;
51248;SDS011;39642;47.556;18.728;2023-06-10T00:50:59;9.63;;;3.40;;
51248;SDS011;39642;47.556;18.728;2023-06-10T00:53:26;10.27;;;3.70;;
51248;SDS011;39642;47.556;18.728;2023-06-10T00:55:53;9.75;;;3.60;;
51248;SDS011;39642;47.556;18.728;2023-06-10T00:58:19;9.15;;;3.35;;
51248;SDS011;39642;47.556;18.728;2023-06-10T01:00:45;8.60;;;3.28;;
51248;SDS011;39642;47.556;18.728;2023-06-10T01:03:12;9.07;;;3.60;;
51248;SDS011;39642;47.556;18.728;2023-06-10T01:05:38;9.38;;;3.62;;
51248;SDS011;39642;47.556;18.728;2023-06-10T01:10:59;12.07;;;3.23;;
51248;SDS011;39642;47.556;18.728;2023-06-10T01:13:27;10.82;;;3.80;;
51248;SDS011;39642;47.556;18.728;2023-06-10T01:15:55;9.57;;;3.53;;
51248;SDS011;39642;47.556;18.728;2023-06-10T01:18:21;8.80;;;3.50;;
51248;SDS011;39642;47.556;18.728;2023-06-10T01:20:47;9.65;;;3.30;;
51248;SDS011;39642;47.556;18.728;2023-06-10T01:23:14;8.27;;;3.30;;
51248;SDS011;39642;47.556;18.728;2023-06-10T01:25:41;8.88;;;3.37;;
51248;SDS011;39642;47.556;18.728;2023-06-10T01:33:47;8.80;;;3.50;;
51248;SDS011;39642;47.556;18.728;2023-06-10T01:36:16;10.45;;;3.28;;
51248;SDS011;39642;47.556;18.728;2023-06-10T01:38:44;9.30;;;3.58;;
51248;SDS011;39642;47.556;18.728;2023-06-10T01:41:12;9.20;;;3.20;;
51248;SDS011;39642;47.556;18.728;2023-06-10T01:43:39;8.82;;;3.12;;
51248;SDS011;39642;47.556;18.728;2023-06-10T01:46:06;10.35;;;3.62;;
51248;SDS011;39642;47.556;18.728;2023-06-10T01:48:32;10.75;;;3.60;;
51248;SDS011;39642;47.556;18.728;2023-06-10T01:50:58;9.07;;;3.20;;
51248;SDS011;39642;47.556;18.728;2023-06-10T01:53:24;9.60;;;3.28;;
51248;SDS011;39642;47.556;18.728;2023-06-10T01:55:50;9.35;;;3.60;;
51248;SDS011;39642;47.556;18.728;2023-06-10T01:58:16;9.98;;;3.97;;
51248;SDS011;39642;47.556;18.728;2023-06-10T02:00:42;10.18;;;3.58;;
51248;SDS011;39642;47.556;18.728;2023-06-10T02:03:08;9.35;;;3.80;;
51248;SDS011;39642;47.556;18.728;2023-06-10T02:05:34;9.10;;;3.70;;
51248;SDS011;39642;47.556;18.728;2023-06-10T02:08:00;9.57;;;3.85;;
51248;SDS011;39642;47.556;18.728;2023-06-10T02:10:26;10.75;;;4.10;;
51248;SDS011;39642;47.556;18.728;2023-06-10T02:12:52;9.73;;;3.95;;
51248;SDS011;39642;47.556;18.728;2023-06-10T02:15:18;10.13;;;4.00;;
51248;SDS011;39642;47.556;18.728;2023-06-10T02:17:44;11.65;;;4.40;;
51248;SDS011;39642;47.556;18.728;2023-06-10T02:20:14;9.90;;;3.83;;
51248;SDS011;39642;47.556;18.728;2023-06-10T02:22:40;10.02;;;4.50;;
51248;SDS011;39642;47.556;18.728;2023-06-10T02:25:06;10.88;;;4.25;;
51248;SDS011;39642;47.556;18.728;2023-06-10T02:27:32;11.05;;;4.28;;
51248;SDS011;39642;47.556;18.728;2023-06-10T02:29:58;11.25;;;4.53;;
51248;SDS011;39642;47.556;18.728;2023-06-10T02:32:24;10.50;;;4.28;;
51248;SDS011;39642;47.556;18.728;2023-06-10T02:34:51;12.10;;;4.55;;
51248;SDS011;39642;47.556;18.728;2023-06-10T02:37:16;10.90;;;4.03;;
51248;SDS011;39642;47.556;18.728;2023-06-10T02:39:43;10.68;;;4.62;;
51248;SDS011;39642;47.556;18.728;2023-06-10T02:42:09;10.70;;;4.43;;
51248;SDS011;39642;47.556;18.728;2023-06-10T02:44:36;10.80;;;4.32;;
51248;SDS011;39642;47.556;18.728;2023-06-10T02:47:01;10.13;;;4.53;;
51248;SDS011;39642;47.556;18.728;2023-06-10T02:49:27;12.35;;;4.65;;
51248;SDS011;39642;47.556;18.728;2023-06-10T02:51:53;11.70;;;4.00;;
51248;SDS011;39642;47.556;18.728;2023-06-10T02:54:19;10.88;;;4.60;;
51248;SDS011;39642;47.556;18.728;2023-06-10T02:56:46;11.45;;;4.40;;
51248;SDS011;39642;47.556;18.728;2023-06-10T02:59:13;10.00;;;4.35;;
51248;SDS011;39642;47.556;18.728;2023-06-10T03:01:40;10.23;;;4.35;;
51248;SDS011;39642;47.556;18.728;2023-06-10T03:04:06;10.02;;;4.12;;
51248;SDS011;39642;47.556;18.728;2023-06-10T03:06:32;10.95;;;4.10;;
51248;SDS011;39642;47.556;18.728;2023-06-10T03:09:02;13.23;;;4.60;;
51248;SDS011;39642;47.556;18.728;2023-06-10T03:11:30;12.43;;;4.53;;
51248;SDS011;39642;47.556;18.728;2023-06-10T03:13:56;10.60;;;4.43;;
51248;SDS011;39642;47.556;18.728;2023-06-10T03:16:22;12.10;;;4.43;;
51248;SDS011;39642;47.556;18.728;2023-06-10T03:18:50;11.12;;;4.28;;
51248;SDS011;39642;47.556;18.728;2023-06-10T03:21:16;10.95;;;4.60;;
51248;SDS011;39642;47.556;18.728;2023-06-10T03:23:42;10.43;;;4.50;;
51248;SDS011;39642;47.556;18.728;2023-06-10T03:26:08;9.93;;;4.37;;
51248;SDS011;39642;47.556;18.728;2023-06-10T03:28:35;10.40;;;4.45;;
51248;SDS011;39642;47.556;18.728;2023-06-10T03:31:01;9.77;;;4.40;;
51248;SDS011;39642;47.556;18.728;2023-06-10T03:33:27;10.20;;;4.28;;
51248;SDS011;39642;47.556;18.728;2023-06-10T03:35:53;11.98;;;4.57;;
51248;SDS011;39642;47.556;18.728;2023-06-10T03:38:19;11.55;;;4.47;;
51248;SDS011;39642;47.556;18.728;2023-06-10T03:40:45;11.38;;;4.32;;
51248;SDS011;39642;47.556;18.728;2023-06-10T03:43:11;10.23;;;4.43;;
51248;SDS011;39642;47.556;18.728;2023-06-10T03:45:36;11.57;;;4.40;;
51248;SDS011;39642;47.556;18.728;2023-06-10T03:48:02;11.68;;;4.60;;
51248;SDS011;39642;47.556;18.728;2023-06-10T03:50:29;10.00;;;4.50;;
51248;SDS011;39642;47.556;18.728;2023-06-10T03:52:55;11.73;;;4.60;;
51248;SDS011;39642;47.556;18.728;2023-06-10T03:55:20;10.73;;;4.70;;
51248;SDS011;39642;47.556;18.728;2023-06-10T03:57:49;10.93;;;4.40;;
51248;SDS011;39642;47.556;18.728;2023-06-10T04:00:15;10.60;;;4.95;;
51248;SDS011;39642;47.556;18.728;2023-06-10T04:02:46;11.27;;;4.95;;
51248;SDS011;39642;47.556;18.728;2023-06-10T04:05:12;10.65;;;4.78;;
51248;SDS011;39642;47.556;18.728;2023-06-10T04:07:39;11.48;;;4.78;;
51248;SDS011;39642;47.556;18.728;2023-06-10T04:10:08;11.12;;;5.12;;
51248;SDS011;39642;47.556;18.728;2023-06-10T04:12:34;11.18;;;4.47;;
51248;SDS011;39642;47.556;18.728;2023-06-10T04:15:01;9.98;;;4.10;;
51248;SDS011;39642;47.556;18.728;2023-06-10T04:17:28;11.65;;;4.50;;
51248;SDS011;39642;47.556;18.728;2023-06-10T04:19:54;11.60;;;4.45;;
51248;SDS011;39642;47.556;18.728;2023-06-10T04:22:20;10.50;;;4.57;;
51248;SDS011;39642;47.556;18.728;2023-06-10T04:24:46;10.07;;;4.32;;
51248;SDS011;39642;47.556;18.728;2023-06-10T04:27:12;10.05;;;4.15;;
51248;SDS011;39642;47.556;18.728;2023-06-10T04:29:38;10.00;;;4.07;;
51248;SDS011;39642;47.556;18.728;2023-06-10T04:32:04;10.48;;;4.45;;
51248;SDS011;39642;47.556;18.728;2023-06-10T04:34:34;10.55;;;4.28;;
51248;SDS011;39642;47.556;18.728;2023-06-10T04:37:01;11.18;;;4.57;;
51248;SDS011;39642;47.556;18.728;2023-06-10T04:39:27;10.27;;;4.75;;
51248;SDS011;39642;47.556;18.728;2023-06-10T04:41:53;11.07;;;4.60;;
51248;SDS011;39642;47.556;18.728;2023-06-10T04:44:18;10.77;;;4.30;;
51248;SDS011;39642;47.556;18.728;2023-06-10T04:46:44;9.57;;;4.20;;
51248;SDS011;39642;47.556;18.728;2023-06-10T04:49:11;11.77;;;4.30;;
51248;SDS011;39642;47.556;18.728;2023-06-10T04:51:39;10.63;;;4.03;;
51248;SDS011;39642;47.556;18.728;2023-06-10T04:54:05;12.02;;;4.20;;
51248;SDS011;39642;47.556;18.728;2023-06-10T04:56:32;10.02;;;4.25;;
51248;SDS011;39642;47.556;18.728;2023-06-10T04:58:58;10.23;;;4.30;;
51248;SDS011;39642;47.556;18.728;2023-06-10T05:01:25;9.95;;;4.20;;
51248;SDS011;39642;47.556;18.728;2023-06-10T05:03:51;9.38;;;3.85;;
51248;SDS011;39642;47.556;18.728;2023-06-10T05:06:17;11.25;;;4.50;;
51248;SDS011;39642;47.556;18.728;2023-06-10T05:08:43;10.00;;;4.40;;
51248;SDS011;39642;47.556;18.728;2023-06-10T05:11:09;10.85;;;4.40;;
51248;SDS011;39642;47.556;18.728;2023-06-10T05:13:35;10.00;;;4.20;;
51248;SDS011;39642;47.556;18.728;2023-06-10T05:16:01;11.75;;;4.53;;
51248;SDS011;39642;47.556;18.728;2023-06-10T05:18:28;9.68;;;3.92;;
51248;SDS011;39642;47.556;18.728;2023-06-10T05:20:53;9.45;;;3.90;;
51248;SDS011;39642;47.556;18.728;2023-06-10T05:23:20;9.80;;;3.60;;
51248;SDS011;39642;47.556;18.728;2023-06-10T05:25:46;10.07;;;3.72;;
51248;SDS011;39642;47.556;18.728;2023-06-10T05:28:12;10.85;;;4.35;;
51248;SDS011;39642;47.556;18.728;2023-06-10T05:30:38;9.25;;;3.62;;
51248;SDS011;39642;47.556;18.728;2023-06-10T05:33:04;9.00;;;3.67;;
51248;SDS011;39642;47.556;18.728;2023-06-10T05:35:30;8.85;;;3.53;;
51248;SDS011;39642;47.556;18.728;2023-06-10T05:37:56;9.73;;;3.80;;
51248;SDS011;39642;47.556;18.728;2023-06-10T05:40:22;9.18;;;3.40;;
51248;SDS011;39642;47.556;18.728;2023-06-10T05:42:48;9.07;;;3.47;;
51248;SDS011;39642;47.556;18.728;2023-06-10T05:45:14;8.80;;;3.33;;
51248;SDS011;39642;47.556;18.728;2023-06-10T05:47:41;8.57;;;3.33;;
51248;SDS011;39642;47.556;18.728;2023-06-10T05:50:07;9.40;;;3.60;;
51248;SDS011;39642;47.556;18.728;2023-06-10T05:52:37;9.13;;;3.33;;
51248;SDS011;39642;47.556;18.728;2023-06-10T05:55:06;9.35;;;3.60;;
51248;SDS011;39642;47.556;18.728;2023-06-10T05:57:32;9.60;;;3.47;;
51248;SDS011;39642;47.556;18.728;2023-06-10T05:59:58;8.90;;;3.62;;
51248;SDS011;39642;47.556;18.728;2023-06-10T06:02:24;9.32;;;3.55;;
51248;SDS011;39642;47.556;18.728;2023-06-10T06:04:50;8.32;;;3.33;;
51248;SDS011;39642;47.556;18.728;2023-06-10T06:07:15;9.15;;;3.60;;
51248;SDS011;39642;47.556;18.728;2023-06-10T06:09:41;10.23;;;3.50;;
51248;SDS011;39642;47.556;18.728;2023-06-10T06:12:07;9.48;;;3.60;;
51248;SDS011;39642;47.556;18.728;2023-06-10T06:14:36;9.02;;;3.12;;
51248;SDS011;39642;47.556;18.728;2023-06-10T06:17:05;8.88;;;3.20;;
51248;SDS011;39642;47.556;18.728;2023-06-10T06:19:31;8.18;;;3.17;;
51248;SDS011;39642;47.556;18.728;2023-06-10T06:21:57;8.82;;;3.30;;
51248;SDS011;39642;47.556;18.728;2023-06-10T06:24:23;8.50;;;3.08;;
51248;SDS011;39642;47.556;18.728;2023-06-10T06:26:49;8.93;;;3.37;;
51248;SDS011;39642;47.556;18.728;2023-06-10T06:29:15;8.82;;;3.00;;
51248;SDS011;39642;47.556;18.728;2023-06-10T06:31:40;9.13;;;2.87;;
51248;SDS011;39642;47.556;18.728;2023-06-10T06:34:06;9.32;;;3.30;;
51248;SDS011;39642;47.556;18.728;2023-06-10T06:36:32;7.93;;;3.00;;
51248;SDS011;39642;47.556;18.728;2023-06-10T06:38:58;8.13;;;3.10;;
51248;SDS011;39642;47.556;18.728;2023-06-10T06:41:27;9.23;;;3.40;;
51248;SDS011;39642;47.556;18.728;2023-06-10T06:43:54;8.80;;;3.40;;
51248;SDS011;39642;47.556;18.728;2023-06-10T06:46:20;8.50;;;3.28;;
51248;SDS011;39642;47.556;18.728;2023-06-10T06:48:46;9.35;;;3.30;;
51248;SDS011;39642;47.556;18.728;2023-06-10T06:51:12;8.10;;;3.00;;
51248;SDS011;39642;47.556;18.728;2023-06-10T06:53:38;8.98;;;3.20;;
51248;SDS011;39642;47.556;18.728;2023-06-10T06:56:10;7.90;;;2.92;;
51248;SDS011;39642;47.556;18.728;2023-06-10T06:58:36;9.40;;;3.35;;
51248;SDS011;39642;47.556;18.728;2023-06-10T07:01:02;7.72;;;2.92;;
51248;SDS011;39642;47.556;18.728;2023-06-10T07:03:28;8.15;;;3.20;;
51248;SDS011;39642;47.556;18.728;2023-06-10T07:05:54;8.55;;;3.10;;
51248;SDS011;39642;47.556;18.728;2023-06-10T07:08:20;8.85;;;3.10;;
51248;SDS011;39642;47.556;18.728;2023-06-10T07:10:46;8.45;;;3.20;;
51248;SDS011;39642;47.556;18.728;2023-06-10T07:13:12;9.27;;;3.00;;
51248;SDS011;39642;47.556;18.728;2023-06-10T07:15:38;8.75;;;2.95;;
51248;SDS011;39642;47.556;18.728;2023-06-10T07:18:04;9.25;;;2.90;;
51248;SDS011;39642;47.556;18.728;2023-06-10T07:20:30;9.13;;;2.80;;
51248;SDS011;39642;47.556;18.728;2023-06-10T07:22:56;8.60;;;3.05;;
51248;SDS011;39642;47.556;18.728;2023-06-10T07:25:22;8.98;;;3.15;;
51248;SDS011;39642;47.556;18.728;2023-06-10T07:27:49;8.55;;;3.08;;
51248;SDS011;39642;47.556;18.728;2023-06-10T07:30:15;8.80;;;3.20;;
51248;SDS011;39642;47.556;18.728;2023-06-10T07:32:41;9.18;;;3.20;;
51248;SDS011;39642;47.556;18.728;2023-06-10T07:35:08;8.70;;;3.05;;
51248;SDS011;39642;47.556;18.728;2023-06-10T07:37:36;9.50;;;3.40;;
51248;SDS011;39642;47.556;18.728;2023-06-10T07:40:02;9.10;;;3.03;;
51248;SDS011;39642;47.556;18.728;2023-06-10T07:42:28;8.90;;;2.80;;
51248;SDS011;39642;47.556;18.728;2023-06-10T07:44:53;8.25;;;2.92;;
51248;SDS011;39642;47.556;18.728;2023-06-10T07:47:19;7.65;;;2.87;;
51248;SDS011;39642;47.556;18.728;2023-06-10T07:49:45;8.02;;;2.95;;
51248;SDS011;39642;47.556;18.728;2023-06-10T07:52:11;8.15;;;2.83;;
51248;SDS011;39642;47.556;18.728;2023-06-10T07:54:37;9.30;;;3.00;;
51248;SDS011;39642;47.556;18.728;2023-06-10T07:57:03;8.50;;;3.00;;
51248;SDS011;39642;47.556;18.728;2023-06-10T07:59:29;8.30;;;3.08;;
51248;SDS011;39642;47.556;18.728;2023-06-10T08:01:55;8.85;;;3.08;;
51248;SDS011;39642;47.556;18.728;2023-06-10T08:04:21;8.88;;;3.10;;
51248;SDS011;39642;47.556;18.728;2023-06-10T08:06:46;8.43;;;2.95;;
51248;SDS011;39642;47.556;18.728;2023-06-10T08:09:12;9.25;;;3.65;;
51248;SDS011;39642;47.556;18.728;2023-06-10T08:11:38;8.40;;;3.00;;
51248;SDS011;39642;47.556;18.728;2023-06-10T08:14:04;8.68;;;3.03;;
51248;SDS011;39642;47.556;18.728;2023-06-10T08:16:30;8.40;;;2.87;;
51248;SDS011;39642;47.556;18.728;2023-06-10T08:18:56;9.32;;;3.30;;
51248;SDS011;39642;47.556;18.728;2023-06-10T08:21:22;8.02;;;2.87;;
51248;SDS011;39642;47.556;18.728;2023-06-10T08:23:47;9.68;;;3.28;;
51248;SDS011;39642;47.556;18.728;2023-06-10T08:26:13;7.65;;;3.10;;
51248;SDS011;39642;47.556;18.728;2023-06-10T08:28:39;8.68;;;3.28;;
51248;SDS011;39642;47.556;18.728;2023-06-10T08:31:05;11.10;;;3.40;;
51248;SDS011;39642;47.556;18.728;2023-06-10T08:33:31;9.48;;;3.20;;
51248;SDS011;39642;47.556;18.728;2023-06-10T08:35:57;8.02;;;3.12;;
51248;SDS011;39642;47.556;18.728;2023-06-10T08:38:23;9.00;;;3.42;;
51248;SDS011;39642;47.556;18.728;2023-06-10T08:40:48;8.63;;;3.37;;
51248;SDS011;39642;47.556;18.728;2023-06-10T08:43:22;10.75;;;3.60;;
51248;SDS011;39642;47.556;18.728;2023-06-10T08:46:00;9.93;;;3.10;;
51248;SDS011;39642;47.556;18.728;2023-06-10T08:48:28;8.38;;;3.00;;
51248;SDS011;39642;47.556;18.728;2023-06-10T08:50:55;8.77;;;3.25;;
51248;SDS011;39642;47.556;18.728;2023-06-10T08:53:22;9.45;;;3.22;;
51248;SDS011;39642;47.556;18.728;2023-06-10T08:55:52;9.15;;;3.47;;
51248;SDS011;39642;47.556;18.728;2023-06-10T08:58:23;11.18;;;3.60;;
51248;SDS011;39642;47.556;18.728;2023-06-10T09:00:48;9.40;;;3.28;;
51248;SDS011;39642;47.556;18.728;2023-06-10T09:03:15;10.15;;;3.55;;
51248;SDS011;39642;47.556;18.728;2023-06-10T09:05:42;8.50;;;3.42;;
51248;SDS011;39642;47.556;18.728;2023-06-10T09:08:08;9.15;;;3.58;;
51248;SDS011;39642;47.556;18.728;2023-06-10T09:10:35;10.73;;;3.47;;
51248;SDS011;39642;47.556;18.728;2023-06-10T09:13:01;9.30;;;3.92;;
51248;SDS011;39642;47.556;18.728;2023-06-10T09:15:27;10.63;;;3.87;;
51248;SDS011;39642;47.556;18.728;2023-06-10T09:17:53;11.30;;;4.05;;
51248;SDS011;39642;47.556;18.728;2023-06-10T09:20:19;10.70;;;3.85;;
51248;SDS011;39642;47.556;18.728;2023-06-10T09:22:45;9.73;;;3.90;;
51248;SDS011;39642;47.556;18.728;2023-06-10T09:25:12;9.57;;;3.72;;
51248;SDS011;39642;47.556;18.728;2023-06-10T09:30:24;10.80;;;3.92;;
51248;SDS011;39642;47.556;18.728;2023-06-10T09:32:51;12.10;;;4.55;;
51248;SDS011;39642;47.556;18.728;2023-06-10T09:35:18;10.13;;;4.00;;
51248;SDS011;39642;47.556;18.728;2023-06-10T09:37:44;10.38;;;3.83;;
51248;SDS011;39642;47.556;18.728;2023-06-10T09:40:11;8.88;;;3.80;;
51248;SDS011;39642;47.556;18.728;2023-06-10T09:42:38;9.88;;;3.92;;
51248;SDS011;39642;47.556;18.728;2023-06-10T09:45:05;10.20;;;3.95;;
51248;SDS011;39642;47.556;18.728;2023-06-10T09:47:32;11.45;;;3.92;;
51248;SDS011;39642;47.556;18.728;2023-06-10T09:49:58;10.30;;;4.00;;
51248;SDS011;39642;47.556;18.728;2023-06-10T09:52:24;9.75;;;3.83;;
51248;SDS011;39642;47.556;18.728;2023-06-10T09:54:52;9.35;;;3.80;;
51248;SDS011;39642;47.556;18.728;2023-06-10T09:57:30;9.02;;;4.00;;
51248;SDS011;39642;47.556;18.728;2023-06-10T10:00:05;9.57;;;3.92;;
51248;SDS011;39642;47.556;18.728;2023-06-10T10:02:36;9.07;;;4.00;;
51248;SDS011;39642;47.556;18.728;2023-06-10T10:05:10;9.73;;;4.10;;
51248;SDS011;39642;47.556;18.728;2023-06-10T10:07:38;9.10;;;3.80;;
51248;SDS011;39642;47.556;18.728;2023-06-10T10:10:04;10.13;;;3.58;;
51248;SDS011;39642;47.556;18.728;2023-06-10T10:12:31;10.27;;;3.83;;
51248;SDS011;39642;47.556;18.728;2023-06-10T10:14:57;9.40;;;3.78;;
51248;SDS011;39642;47.556;18.728;2023-06-10T10:17:24;9.75;;;3.80;;
51248;SDS011;39642;47.556;18.728;2023-06-10T10:19:54;9.20;;;3.97;;
51248;SDS011;39642;47.556;18.728;2023-06-10T10:22:26;11.32;;;4.53;;
51248;SDS011;39642;47.556;18.728;2023-06-10T10:24:57;9.40;;;3.70;;
51248;SDS011;39642;47.556;18.728;2023-06-10T10:27:27;10.18;;;3.70;;
51248;SDS011;39642;47.556;18.728;2023-06-10T10:30:01;10.00;;;3.80;;
51248;SDS011;39642;47.556;18.728;2023-06-10T10:32:34;11.30;;;4.03;;
51248;SDS011;39642;47.556;18.728;2023-06-10T10:35:17;9.23;;;3.75;;
51248;SDS011;39642;47.556;18.728;2023-06-10T10:37:47;11.35;;;4.05;;
51248;SDS011;39642;47.556;18.728;2023-06-10T10:40:14;9.48;;;3.97;;
51248;SDS011;39642;47.556;18.728;2023-06-10T10:42:41;11.07;;;3.65;;
51248;SDS011;39642;47.556;18.728;2023-06-10T10:45:08;10.10;;;4.00;;
51248;SDS011;39642;47.556;18.728;2023-06-10T10:47:35;9.38;;;3.65;;
51248;SDS011;39642;47.556;18.728;2023-06-10T10:50:03;9.27;;;3.55;;
51248;SDS011;39642;47.556;18.728;2023-06-10T10:52:57;9.80;;;3.80;;
51248;SDS011;39642;47.556;18.728;2023-06-10T10:55:25;8.90;;;3.50;;
51248;SDS011;39642;47.556;18.728;2023-06-10T10:57:56;9.00;;;3.83;;
51248;SDS011;39642;47.556;18.728;2023-06-10T11:00:30;10.25;;;4.05;;
51248;SDS011;39642;47.556;18.728;2023-06-10T11:03:06;9.57;;;3.62;;
51248;SDS011;39642;47.556;18.728;2023-06-10T11:08:13;9.77;;;3.97;;
51248;SDS011;39642;47.556;18.728;2023-06-10T11:10:54;11.70;;;3.95;;
51248;SDS011;39642;47.556;18.728;2023-06-10T11:13:21;10.07;;;3.80;;
51248;SDS011;39642;47.556;18.728;2023-06-10T11:15:50;11.50;;;4.20;;
51248;SDS011;39642;47.556;18.728;2023-06-10T11:18:26;10.35;;;3.80;;
51248;SDS011;39642;47.556;18.728;2023-06-10T11:28:38;11.00;;;3.80;;
51248;SDS011;39642;47.556;18.728;2023-06-10T11:31:08;9.55;;;3.60;;
51248;SDS011;39642;47.556;18.728;2023-06-10T11:33:44;11.00;;;3.97;;
51248;SDS011;39642;47.556;18.728;2023-06-10T11:36:10;9.32;;;3.55;;
51248;SDS011;39642;47.556;18.728;2023-06-10T11:38:36;9.27;;;3.65;;
51248;SDS011;39642;47.556;18.728;2023-06-10T11:41:02;9.27;;;3.70;;
51248;SDS011;39642;47.556;18.728;2023-06-10T11:43:28;9.88;;;4.05;;
51248;SDS011;39642;47.556;18.728;2023-06-10T11:45:55;9.20;;;3.67;;
51248;SDS011;39642;47.556;18.728;2023-06-10T11:48:22;9.35;;;3.42;;
51248;SDS011;39642;47.556;18.728;2023-06-10T11:50:48;9.70;;;4.00;;
51248;SDS011;39642;47.556;18.728;2023-06-10T11:53:14;9.07;;;3.83;;
51248;SDS011;39642;47.556;18.728;2023-06-10T11:55:41;8.95;;;3.53;;
51248;SDS011;39642;47.556;18.728;2023-06-10T11:58:17;11.00;;;4.37;;
51248;SDS011;39642;47.556;18.728;2023-06-10T12:00:51;9.40;;;4.15;;
51248;SDS011;39642;47.556;18.728;2023-06-10T12:03:24;11.02;;;4.22;;
51248;SDS011;39642;47.556;18.728;2023-06-10T12:08:24;10.30;;;4.37;;
51248;SDS011;39642;47.556;18.728;2023-06-10T12:10:50;10.95;;;4.65;;
51248;SDS011;39642;47.556;18.728;2023-06-10T12:13:16;9.82;;;4.40;;
51248;SDS011;39642;47.556;18.728;2023-06-10T12:15:45;11.40;;;5.32;;
51248;SDS011;39642;47.556;18.728;2023-06-10T12:18:21;11.05;;;4.80;;
51248;SDS011;39642;47.556;18.728;2023-06-10T12:20:48;10.90;;;5.00;;
51248;SDS011;39642;47.556;18.728;2023-06-10T12:23:16;11.65;;;5.50;;
51248;SDS011;39642;47.556;18.728;2023-06-10T12:25:50;10.70;;;5.18;;
51248;SDS011;39642;47.556;18.728;2023-06-10T12:28:18;12.27;;;5.72;;
51248;SDS011;39642;47.556;18.728;2023-06-10T12:30:46;13.40;;;5.57;;
51248;SDS011;39642;47.556;18.728;2023-06-10T12:33:19;12.02;;;5.72;;
51248;SDS011;39642;47.556;18.728;2023-06-10T12:35:47;11.98;;;6.15;;
51248;SDS011;39642;47.556;18.728;2023-06-10T12:38:20;13.10;;;6.18;;
51248;SDS011;39642;47.556;18.728;2023-06-10T12:40:47;12.00;;;6.03;;
51248;SDS011;39642;47.556;18.728;2023-06-10T12:43:13;12.07;;;5.70;;
51248;SDS011;39642;47.556;18.728;2023-06-10T12:45:45;15.73;;;5.18;;
51248;SDS011;39642;47.556;18.728;2023-06-10T12:48:12;10.38;;;4.68;;
51248;SDS011;39642;47.556;18.728;2023-06-10T12:50:43;13.15;;;4.87;;
51248;SDS011;39642;47.556;18.728;2023-06-10T12:53:10;13.88;;;5.32;;
51248;SDS011;39642;47.556;18.728;2023-06-10T12:55:37;15.95;;;5.37;;
51248;SDS011;39642;47.556;18.728;2023-06-10T12:58:04;17.30;;;5.78;;
51248;SDS011;39642;47.556;18.728;2023-06-10T13:00:29;13.88;;;5.55;;
51248;SDS011;39642;47.556;18.728;2023-06-10T13:02:56;17.55;;;6.03;;
51248;SDS011;39642;47.556;18.728;2023-06-10T13:05:22;18.98;;;6.20;;
51248;SDS011;39642;47.556;18.728;2023-06-10T13:07:48;16.27;;;5.75;;
51248;SDS011;39642;47.556;18.728;2023-06-10T13:10:15;13.48;;;5.82;;
51248;SDS011;39642;47.556;18.728;2023-06-10T13:12:42;14.65;;;5.62;;
51248;SDS011;39642;47.556;18.728;2023-06-10T13:15:09;14.48;;;5.78;;
51248;SDS011;39642;47.556;18.728;2023-06-10T13:17:36;13.35;;;5.07;;
51248;SDS011;39642;47.556;18.728;2023-06-10T13:20:03;11.55;;;4.45;;
51248;SDS011;39642;47.556;18.728;2023-06-10T13:22:31;15.05;;;5.50;;
51248;SDS011;39642;47.556;18.728;2023-06-10T13:24:58;14.73;;;5.82;;
51248;SDS011;39642;47.556;18.728;2023-06-10T13:27:25;14.27;;;5.47;;
51248;SDS011;39642;47.556;18.728;2023-06-10T13:29:51;11.98;;;5.50;;
51248;SDS011;39642;47.556;18.728;2023-06-10T13:32:16;12.80;;;5.35;;
51248;SDS011;39642;47.556;18.728;2023-06-10T13:34:42;11.77;;;5.05;;
51248;SDS011;39642;47.556;18.728;2023-06-10T13:37:08;11.52;;;5.47;;
51248;SDS011;39642;47.556;18.728;2023-06-10T13:39:34;12.23;;;4.53;;
51248;SDS011;39642;47.556;18.728;2023-06-10T13:42:00;12.02;;;4.87;;
51248;SDS011;39642;47.556;18.728;2023-06-10T13:44:26;10.95;;;4.70;;
51248;SDS011;39642;47.556;18.728;2023-06-10T13:46:52;11.48;;;4.75;;
51248;SDS011;39642;47.556;18.728;2023-06-10T13:49:17;10.45;;;4.62;;
51248;SDS011;39642;47.556;18.728;2023-06-10T13:51:43;11.18;;;4.37;;
51248;SDS011;39642;47.556;18.728;2023-06-10T13:54:09;11.57;;;4.68;;
51248;SDS011;39642;47.556;18.728;2023-06-10T13:56:35;10.18;;;4.18;;
51248;SDS011;39642;47.556;18.728;2023-06-10T13:59:03;10.52;;;4.30;;
51248;SDS011;39642;47.556;18.728;2023-06-10T14:01:29;9.85;;;4.35;;
51248;SDS011;39642;47.556;18.728;2023-06-10T14:03:55;10.90;;;4.45;;
51248;SDS011;39642;47.556;18.728;2023-06-10T14:06:21;10.32;;;4.10;;
51248;SDS011;39642;47.556;18.728;2023-06-10T14:08:48;9.75;;;4.32;;
51248;SDS011;39642;47.556;18.728;2023-06-10T14:11:13;10.07;;;3.60;;
51248;SDS011;39642;47.556;18.728;2023-06-10T14:13:40;10.50;;;3.97;;
51248;SDS011;39642;47.556;18.728;2023-06-10T14:16:06;9.55;;;3.92;;
51248;SDS011;39642;47.556;18.728;2023-06-10T14:18:32;10.02;;;4.00;;
51248;SDS011;39642;47.556;18.728;2023-06-10T14:20:58;10.93;;;3.90;;
51248;SDS011;39642;47.556;18.728;2023-06-10T14:23:23;11.23;;;4.03;;
51248;SDS011;39642;47.556;18.728;2023-06-10T14:25:52;10.10;;;3.90;;
51248;SDS011;39642;47.556;18.728;2023-06-10T14:28:18;9.82;;;4.10;;
51248;SDS011;39642;47.556;18.728;2023-06-10T14:30:44;9.20;;;3.72;;
51248;SDS011;39642;47.556;18.728;2023-06-10T14:33:10;9.57;;;3.70;;
51248;SDS011;39642;47.556;18.728;2023-06-10T14:35:36;9.00;;;4.00;;
51248;SDS011;39642;47.556;18.728;2023-06-10T14:38:04;10.93;;;4.10;;
51248;SDS011;39642;47.556;18.728;2023-06-10T14:40:30;9.18;;;3.70;;
51248;SDS011;39642;47.556;18.728;2023-06-10T14:42:57;8.75;;;3.53;;
51248;SDS011;39642;47.556;18.728;2023-06-10T14:45:23;10.35;;;3.83;;
51248;SDS011;39642;47.556;18.728;2023-06-10T14:47:50;9.43;;;3.75;;
51248;SDS011;39642;47.556;18.728;2023-06-10T14:50:16;10.82;;;3.70;;
51248;SDS011;39642;47.556;18.728;2023-06-10T14:52:42;10.18;;;3.70;;